Terminal Aerodrome Forecast
Issued by NWS Green Bay, WI

Home | Current Version | Previous Version | Graphics & Text | Print | Product List | Glossary On
Versions: 1 2 3 4 5 6 7 8 9 10 11 12 13 14 15 16 17 18 19 20 21 22 23 24 25 26 27 28 29 30 31 32 33 34 35 36 37
000
FTUS43 KGRB 270500
TAFGRB
TAF
KGRB 270520Z 2706/2806 23005KT P6SM SCT150
      TEMPO 2708/2712 4SM BR
     FM271500 27011KT P6SM VCSH SCT040 BKN060
      TEMPO 2716/2720 3SM -SHRA BR SCT020 BKN035
     FM272200 36012KT P6SM SCT015 BKN050=

USA.gov is the U.S. government's official web portal to all federal, state and local government web resources and services.